METAR AND TAF INFORMATION
METAR FOR PWAK
ADDS - METARS form results

(1150 UTC 19 May 2019)
Data provider http://aviationweather.gov/metar/data/
 
METAR text: PWAK 191100Z AUTO 15003KT 9999 FEW044 SCT095 25/22 A2993 RMK AO2 RAE00 SLP142 $
Conditions at: PWAK (WAKE ISLAND AIRF, UM, US) observed 1100 UTC 19 May 2019
Temperature: 25.0°C (77°F)
Dewpoint: 22.0°C (72°F) [RH = 83%]
Pressure (altimeter): 29.93 inches Hg (1013.6 mb)
[Sea-level pressure: 1014.2 mb]
Winds: from the SSE (150 degrees) at 3 MPH (3 knots; 1.5 m/s)
Visibility: 6 or more miles (10+ km)
Ceiling: at least 12,000 feet AGL
Clouds: few clouds at 4400 feet AGL
scattered clouds at 9500 feet AGL
Weather:
SOME DATA ABOVE MAY BE INACCURATE!!!
"$" is an indication the sensor requires maintenance

METAR text: PWAK 191058Z AUTO 13005KT 9999 -RA SCT047 SCT095 25/22 A2994 RMK AO2 RAB47 SLP145 P0000 T02490215 $
Conditions at: PWAK (WAKE ISLAND AIRF, UM, US) observed 1058 UTC 19 May 2019
Temperature: 24.9°C (77°F)
Dewpoint: 21.5°C (71°F) [RH = 81%]
Pressure (altimeter): 29.94 inches Hg (1014.0 mb)
[Sea-level pressure: 1014.5 mb]
Winds: from the SE (130 degrees) at 6 MPH (5 knots; 2.6 m/s)
Visibility: 6 or more miles (10+ km)
Ceiling: at least 12,000 feet AGL
Clouds: scattered clouds at 4700 feet AGL
scattered clouds at 9500 feet AGL
Weather: -RA  (light rain)
SOME DATA ABOVE MAY BE INACCURATE!!!
"$" is an indication the sensor requires maintenance

Forecast for: PWAK (WAKE ISLAND AIRF, UM, US)
Text: TAF PWAK 190600Z 1906/2012 15009KT 9999 SCT020 QNH2985INS TX32/2004Z TN26/1914Z AUTO FCST LIMITED METWATCH 1906 TIL 1914
Forecast period: 0600 UTC 19 May 2019 to 1200 UTC 20 May 2019
Forecast type: FROM: standard forecast or significant change
Winds: from the SSE (150 degrees) at 10 MPH (9 knots; 4.6 m/s)
Visibility: 6 or more miles 10+ km)
Ceiling: at least 12,000 feet AGL
Clouds: scattered clouds at 2000 feet AGL
Weather: no significant weather forecast for this period

 AIRPORT MAP

 RUNWAY INFORMATION
Runway 10 Runway length 9843 ft Runway width 150 ft
Runway elevation 14 ft Runway displaced threshold 0 ft Runway heading 95
Runway 28 Runway length 9843 ft Runway width 150 ft
Runway elevation 12 ft Runway displaced threshold 0 ft Runway heading 275

 AIRPORT FREQUENCIES
Type A/G Name OPS AAS Frequency 128 MHZ
Type RDO Name OAKLAND OC Frequency 884.3 MHZ

 AIRPORT NEAR NAVIGATION AIDS
Type VORTAC Name Wake Island Frequency 113500 KHZ



Powered by Virtual Airlines Manager [v2.6.2]